KFCI

Richmond Executive-Chesterfield County Airport

Richmond, Virginia, USA
METAR KFCI 220156Z AUTO 11004KT 10SM OVC019 20/16 A3017 RMK AO2 SLP232 T02000156 $
Observed Flight Rules
May-22 @ 01:56 UTC (42 minutes ago) Marginal Visual Flight Rules
Wind Visibility Clouds
110° at 4 knots 10 miles
  • Overcast at 1,900' AGL
Temperatures Readings
Current 20°C / 68°F
Dewpoint 16°C / 61°F
Humidity 78%
Altimeter 30.17" Hg
Pressure 1023.2 hPa
Elevation 72
METAR KFCI 220156Z AUTO 11004KT 10SM OVC019 20/16 A3017 RMK AO2 SLP232 T02000156 $
Observed Flight Rules
May-22 @ 01:56 UTC
(42 minutes ago)
MVFR
Wind Visibility
110° at 4 knots 10 miles
Clouds
  • Overcast at 1,900' AGL
Temperature Dewpoint
20°C / 68°F 16°C / 61°F
Humidity Altimeter Pressure
78% 30.17" Hg 1023.2 hPa